sensor_id;sensor_type;location;lat;lon;timestamp;pressure;altitude;pressure_sealevel;temperature;humidity
47710;BME280;33473;51.640;5.892;2023-02-21T00:06:19;102000;;;12.7;62.0
47710;BME280;33473;51.640;5.892;2023-02-21T00:19:39;102000;;;12.9;61.0
47710;BME280;33473;51.640;5.892;2023-02-21T00:32:58;102000;;;13.0;62.0
47710;BME280;33473;51.640;5.892;2023-02-21T00:46:18;102000;;;12.8;62.0
47710;BME280;33473;51.640;5.892;2023-02-21T00:59:38;102000;;;12.6;63.0
47710;BME280;33473;51.640;5.892;2023-02-21T01:12:58;101900;;;13.1;61.0
47710;BME280;33473;51.640;5.892;2023-02-21T01:26:17;101900;;;12.7;63.0
47710;BME280;33473;51.640;5.892;2023-02-21T01:39:37;101900;;;12.7;63.0
47710;BME280;33473;51.640;5.892;2023-02-21T01:52:57;101900;;;12.4;64.0
47710;BME280;33473;51.640;5.892;2023-02-21T02:06:16;101900;;;12.2;65.0
47710;BME280;33473;51.640;5.892;2023-02-21T02:19:36;101900;;;12.4;64.0
47710;BME280;33473;51.640;5.892;2023-02-21T02:32:56;101900;;;12.5;63.0
47710;BME280;33473;51.640;5.892;2023-02-21T02:46:15;101900;;;12.2;65.0
47710;BME280;33473;51.640;5.892;2023-02-21T02:59:35;101900;;;12.3;65.0
47710;BME280;33473;51.640;5.892;2023-02-21T03:12:55;101900;;;12.3;65.0
47710;BME280;33473;51.640;5.892;2023-02-21T03:26:14;101900;;;12.0;66.0
47710;BME280;33473;51.640;5.892;2023-02-21T03:39:34;101900;;;12.1;65.0
47710;BME280;33473;51.640;5.892;2023-02-21T03:52:54;101900;;;12.0;66.0
47710;BME280;33473;51.640;5.892;2023-02-21T04:06:13;101900;;;11.7;67.0
47710;BME280;33473;51.640;5.892;2023-02-21T04:19:33;101900;;;11.9;67.0
47710;BME280;33473;51.640;5.892;2023-02-21T04:32:53;101900;;;12.3;66.0
47710;BME280;33473;51.640;5.892;2023-02-21T04:46:13;101900;;;11.8;67.0
47710;BME280;33473;51.640;5.892;2023-02-21T04:59:32;101900;;;12.4;65.0
47710;BME280;33473;51.640;5.892;2023-02-21T05:12:52;101900;;;11.7;68.0
47710;BME280;33473;51.640;5.892;2023-02-21T05:26:12;101900;;;12.4;66.0
47710;BME280;33473;51.640;5.892;2023-02-21T05:39:31;101900;;;12.4;66.0
47710;BME280;33473;51.640;5.892;2023-02-21T05:52:51;101900;;;12.3;66.0
47710;BME280;33473;51.640;5.892;2023-02-21T06:06:11;101900;;;13.0;64.0
47710;BME280;33473;51.640;5.892;2023-02-21T06:19:30;101900;;;12.7;65.0
47710;BME280;33473;51.640;5.892;2023-02-21T06:32:50;101900;;;12.5;65.0
47710;BME280;33473;51.640;5.892;2023-02-21T06:46:10;101900;;;12.6;65.0
47710;BME280;33473;51.640;5.892;2023-02-21T06:59:30;101900;;;12.4;66.0
47710;BME280;33473;51.640;5.892;2023-02-21T07:12:49;101900;;;13.1;63.0
47710;BME280;33473;51.640;5.892;2023-02-21T07:26:09;101900;;;12.8;64.0
47710;BME280;33473;51.640;5.892;2023-02-21T07:39:29;101900;;;12.9;63.0
47710;BME280;33473;51.640;5.892;2023-02-21T07:52:48;101900;;;12.3;65.0
47710;BME280;33473;51.640;5.892;2023-02-21T08:06:08;101900;;;13.1;63.0
47710;BME280;33473;51.640;5.892;2023-02-21T08:19:28;101900;;;13.2;63.0
47710;BME280;33473;51.640;5.892;2023-02-21T08:32:47;101900;;;12.8;63.0
47710;BME280;33473;51.640;5.892;2023-02-21T08:46:07;101900;;;13.2;62.0
47710;BME280;33473;51.640;5.892;2023-02-21T08:59:27;101900;;;13.0;62.0
47710;BME280;33473;51.640;5.892;2023-02-21T09:12:47;101900;;;13.0;62.0
47710;BME280;33473;51.640;5.892;2023-02-21T09:26:06;101900;;;13.3;62.0
47710;BME280;33473;51.640;5.892;2023-02-21T09:39:26;101900;;;13.5;62.0
47710;BME280;33473;51.640;5.892;2023-02-21T09:52:46;101900;;;13.3;62.0
47710;BME280;33473;51.640;5.892;2023-02-21T10:06:05;101900;;;13.8;61.0
47710;BME280;33473;51.640;5.892;2023-02-21T10:19:25;101900;;;13.3;61.0
47710;BME280;33473;51.640;5.892;2023-02-21T10:32:45;101900;;;13.6;62.0
47710;BME280;33473;51.640;5.892;2023-02-21T10:46:04;101900;;;14.1;60.0
47710;BME280;33473;51.640;5.892;2023-02-21T10:59:24;101900;;;14.5;59.0
47710;BME280;33473;51.640;5.892;2023-02-21T11:12:44;101900;;;14.4;59.0
47710;BME280;33473;51.640;5.892;2023-02-21T11:26:03;101800;;;14.9;58.0
47710;BME280;33473;51.640;5.892;2023-02-21T11:39:23;101800;;;14.8;56.0
47710;BME280;33473;51.640;5.892;2023-02-21T11:52:43;101800;;;15.0;56.0
47710;BME280;33473;51.640;5.892;2023-02-21T12:06:02;101800;;;15.0;55.0
47710;BME280;33473;51.640;5.892;2023-02-21T12:19:22;101800;;;15.1;55.0
47710;BME280;33473;51.640;5.892;2023-02-21T12:32:42;101800;;;15.5;54.0
47710;BME280;33473;51.640;5.892;2023-02-21T12:46:01;101800;;;15.4;53.0
47710;BME280;33473;51.640;5.892;2023-02-21T12:59:21;101800;;;15.5;53.0
47710;BME280;33473;51.640;5.892;2023-02-21T13:12:41;101800;;;15.6;53.0
47710;BME280;33473;51.640;5.892;2023-02-21T13:26:00;101700;;;15.3;53.0
47710;BME280;33473;51.640;5.892;2023-02-21T13:39:20;101700;;;15.9;52.0
47710;BME280;33473;51.640;5.892;2023-02-21T13:52:40;101700;;;15.9;51.0
47710;BME280;33473;51.640;5.892;2023-02-21T14:05:59;101700;;;15.8;51.0
47710;BME280;33473;51.640;5.892;2023-02-21T14:19:19;101700;;;15.8;51.0
47710;BME280;33473;51.640;5.892;2023-02-21T14:32:39;101700;;;15.6;51.0
47710;BME280;33473;51.640;5.892;2023-02-21T14:45:58;101700;;;15.4;51.0
47710;BME280;33473;51.640;5.892;2023-02-21T14:59:18;101700;;;15.3;52.0
47710;BME280;33473;51.640;5.892;2023-02-21T15:12:38;101700;;;15.1;52.0
47710;BME280;33473;51.640;5.892;2023-02-21T15:25:58;101700;;;14.9;52.0
47710;BME280;33473;51.640;5.892;2023-02-21T15:39:17;101700;;;14.9;52.0
47710;BME280;33473;51.640;5.892;2023-02-21T15:52:37;101700;;;15.0;52.0
47710;BME280;33473;51.640;5.892;2023-02-21T16:05:57;101700;;;15.1;52.0
47710;BME280;33473;51.640;5.892;2023-02-21T16:19:16;101700;;;14.9;52.0
47710;BME280;33473;51.640;5.892;2023-02-21T16:32:36;101700;;;14.7;52.0
47710;BME280;33473;51.640;5.892;2023-02-21T16:45:56;101700;;;14.6;53.0
47710;BME280;33473;51.640;5.892;2023-02-21T16:59:15;101700;;;14.6;53.0
47710;BME280;33473;51.640;5.892;2023-02-21T17:12:35;101700;;;14.5;53.0
47710;BME280;33473;51.640;5.892;2023-02-21T17:25:55;101700;;;14.5;53.0
47710;BME280;33473;51.640;5.892;2023-02-21T17:39:14;101700;;;14.3;53.0
47710;BME280;33473;51.640;5.892;2023-02-21T17:52:34;101700;;;14.2;54.0
47710;BME280;33473;51.640;5.892;2023-02-21T18:05:54;101700;;;14.1;54.0
47710;BME280;33473;51.640;5.892;2023-02-21T18:19:13;101700;;;14.0;54.0
47710;BME280;33473;51.640;5.892;2023-02-21T18:32:33;101700;;;13.9;55.0
47710;BME280;33473;51.640;5.892;2023-02-21T18:45:53;101600;;;13.8;55.0
47710;BME280;33473;51.640;5.892;2023-02-21T18:59:12;101700;;;13.8;55.0
47710;BME280;33473;51.640;5.892;2023-02-21T19:12:32;101600;;;13.7;55.0
47710;BME280;33473;51.640;5.892;2023-02-21T19:25:52;101600;;;13.7;55.0
47710;BME280;33473;51.640;5.892;2023-02-21T19:39:12;101600;;;13.6;55.0
47710;BME280;33473;51.640;5.892;2023-02-21T19:52:31;101600;;;13.6;55.0
47710;BME280;33473;51.640;5.892;2023-02-21T20:05:51;101600;;;13.5;55.0
47710;BME280;33473;51.640;5.892;2023-02-21T20:19:11;101600;;;13.5;55.0
47710;BME280;33473;51.640;5.892;2023-02-21T20:32:30;101600;;;13.5;55.0
47710;BME280;33473;51.640;5.892;2023-02-21T20:45:50;101600;;;13.3;55.0
47710;BME280;33473;51.640;5.892;2023-02-21T20:59:10;101600;;;13.2;55.0
47710;BME280;33473;51.640;5.892;2023-02-21T21:12:29;101600;;;13.1;54.0
47710;BME280;33473;51.640;5.892;2023-02-21T21:25:49;101600;;;13.2;54.0
47710;BME280;33473;51.640;5.892;2023-02-21T21:39:09;101600;;;13.3;54.0
47710;BME280;33473;51.640;5.892;2023-02-21T21:52:28;101500;;;13.2;54.0
47710;BME280;33473;51.640;5.892;2023-02-21T22:05:48;101500;;;13.2;53.0
47710;BME280;33473;51.640;5.892;2023-02-21T22:19:08;101500;;;13.2;53.0
47710;BME280;33473;51.640;5.892;2023-02-21T22:32:27;101500;;;13.1;53.0
47710;BME280;33473;51.640;5.892;2023-02-21T22:45:47;101500;;;13.1;54.0
47710;BME280;33473;51.640;5.892;2023-02-21T22:59:07;101500;;;13.1;54.0
47710;BME280;33473;51.640;5.892;2023-02-21T23:12:27;101400;;;13.0;54.0
47710;BME280;33473;51.640;5.892;2023-02-21T23:25:46;101400;;;12.9;54.0
47710;BME280;33473;51.640;5.892;2023-02-21T23:39:06;101400;;;12.7;55.0
47710;BME280;33473;51.640;5.892;2023-02-21T23:52:25;101400;;;12.4;56.0
